createdAt,value
2018-09-05T00:01:28.744Z,24.40
2018-09-05T00:03:55.793Z,24.40
2018-09-05T00:06:23.200Z,24.40
2018-09-05T00:08:50.241Z,24.40
2018-09-05T00:11:17.280Z,24.30
2018-09-05T00:13:44.604Z,24.30
2018-09-05T00:16:11.647Z,24.30
2018-09-05T00:18:38.697Z,24.30
2018-09-05T00:21:06.065Z,24.30
2018-09-05T00:23:33.162Z,24.30
2018-09-05T00:26:00.192Z,24.30
2018-09-05T00:28:27.612Z,24.30
2018-09-05T00:30:54.666Z,24.20
2018-09-05T00:33:21.900Z,24.20
2018-09-05T00:35:49.152Z,24.20
2018-09-05T00:38:16.203Z,24.10
2018-09-05T00:40:43.351Z,24.10
2018-09-05T00:43:11.052Z,24.10
2018-09-05T00:45:38.100Z,24.10
2018-09-05T00:48:05.140Z,24.00
2018-09-05T00:50:32.183Z,24.00
2018-09-05T00:52:59.229Z,24.10
2018-09-05T00:55:26.299Z,24.00
2018-09-05T00:57:53.338Z,24.00
2018-09-05T01:00:20.698Z,24.00
2018-09-05T01:02:47.743Z,23.90
2018-09-05T01:05:14.792Z,23.90
2018-09-05T01:07:42.174Z,23.90
2018-09-05T01:10:09.274Z,24.00
2018-09-05T01:12:36.396Z,23.90
2018-09-05T01:15:03.464Z,23.90
2018-09-05T01:17:30.511Z,23.90
2018-09-05T01:19:57.556Z,23.90
2018-09-05T01:22:24.620Z,23.90
2018-09-05T01:24:51.749Z,23.90
2018-09-05T01:27:20.837Z,23.90
2018-09-05T01:29:47.892Z,23.90
2018-09-05T01:32:14.932Z,23.90
2018-09-05T01:34:42.195Z,23.90
2018-09-05T01:37:09.754Z,23.90
2018-09-05T01:39:36.807Z,23.90
2018-09-05T01:42:04.057Z,23.90
2018-09-05T01:44:31.110Z,23.90
2018-09-05T01:46:58.159Z,23.80
2018-09-05T01:49:25.480Z,23.80
2018-09-05T01:51:55.569Z,23.80
2018-09-05T01:54:22.627Z,23.80
2018-09-05T01:56:49.872Z,23.80
2018-09-05T01:59:16.931Z,23.80
2018-09-05T02:01:44.024Z,23.80
2018-09-05T02:04:11.093Z,23.70
2018-09-05T02:06:38.145Z,23.70
2018-09-05T02:09:07.824Z,23.70
2018-09-05T02:11:34.887Z,23.70
2018-09-05T02:14:01.953Z,23.70
2018-09-05T02:16:29.025Z,23.70
2018-09-05T02:18:56.092Z,23.80
2018-09-05T02:21:23.408Z,23.80
2018-09-05T02:23:50.467Z,23.70
2018-09-05T02:26:17.525Z,23.70
2018-09-05T02:28:44.580Z,23.70
2018-09-05T02:31:11.657Z,23.80
2018-09-05T02:33:38.721Z,23.80
2018-09-05T02:36:05.774Z,23.80
2018-09-05T02:38:33.196Z,23.80
2018-09-05T02:41:00.265Z,23.80
2018-09-05T02:43:33.111Z,23.80
2018-09-05T02:46:00.152Z,23.80
2018-09-05T02:48:27.229Z,23.80
2018-09-05T02:50:54.604Z,23.80
2018-09-05T02:53:21.660Z,23.80
2018-09-05T02:55:54.961Z,23.70
2018-09-05T02:58:22.005Z,23.70
2018-09-05T03:00:49.048Z,23.70
2018-09-05T03:03:16.416Z,23.70
2018-09-05T03:05:43.481Z,23.60
2018-09-05T03:08:10.528Z,23.60
2018-09-05T03:10:37.884Z,23.60
2018-09-05T03:13:04.945Z,23.70
2018-09-05T03:15:32.026Z,23.70
2018-09-05T03:17:59.457Z,23.60
2018-09-05T03:20:26.545Z,23.70
2018-09-05T03:22:53.634Z,23.70
2018-09-05T03:25:20.741Z,23.60
2018-09-05T03:27:47.816Z,23.70
2018-09-05T03:30:14.901Z,23.70
2018-09-05T03:32:42.415Z,23.70
2018-09-05T03:35:09.388Z,23.70
2018-09-05T03:37:36.478Z,23.70
2018-09-05T03:40:03.881Z,23.70
2018-09-05T03:42:30.974Z,23.70
2018-09-05T03:44:58.069Z,23.70
2018-09-05T03:47:25.153Z,23.70
2018-09-05T03:49:52.290Z,23.70
2018-09-05T03:52:19.333Z,23.70
2018-09-05T03:54:46.790Z,23.70
2018-09-05T03:57:13.863Z,23.60
2018-09-05T03:59:40.942Z,23.60
2018-09-05T04:02:10.042Z,23.60
2018-09-05T04:04:37.117Z,23.60
2018-09-05T04:07:04.195Z,23.60
2018-09-05T04:09:31.282Z,23.50
2018-09-05T04:11:58.389Z,23.50
2018-09-05T04:14:25.882Z,23.50
2018-09-05T04:16:52.954Z,23.60
2018-09-05T04:19:20.034Z,23.60
2018-09-05T04:21:47.450Z,23.60
2018-09-05T04:24:14.525Z,23.60
2018-09-05T04:26:41.601Z,23.60
2018-09-05T04:29:08.685Z,23.60
2018-09-05T04:31:35.767Z,23.60
2018-09-05T04:34:03.022Z,23.70
2018-09-05T04:36:30.091Z,23.70
2018-09-05T04:38:57.177Z,23.70
2018-09-05T04:41:24.549Z,23.70
2018-09-05T04:43:51.628Z,23.70
2018-09-05T04:46:18.799Z,23.70
2018-09-05T04:48:46.270Z,23.70
2018-09-05T04:51:13.353Z,23.70
2018-09-05T04:53:40.436Z,23.70
2018-09-05T04:56:07.630Z,23.70
2018-09-05T04:58:34.726Z,23.70
2018-09-05T05:01:01.812Z,23.70
2018-09-05T05:03:29.197Z,23.70
2018-09-05T05:05:56.275Z,23.70
2018-09-05T05:08:23.357Z,23.70
2018-09-05T05:10:50.469Z,23.70
2018-09-05T05:13:17.561Z,23.70
2018-09-05T05:15:44.641Z,23.80
2018-09-05T05:18:11.742Z,23.80
2018-09-05T05:20:38.827Z,23.80
2018-09-05T05:23:05.905Z,23.80
2018-09-05T05:25:33.007Z,23.80
2018-09-05T05:28:00.086Z,23.70
2018-09-05T05:30:27.165Z,23.80
2018-09-05T05:32:54.713Z,23.80
2018-09-05T05:35:21.805Z,23.80
2018-09-05T05:37:48.929Z,23.70
2018-09-05T05:40:16.096Z,23.70
2018-09-05T05:42:43.148Z,23.70
2018-09-05T05:45:10.227Z,23.70
2018-09-05T05:47:37.309Z,23.70
2018-09-05T05:50:04.405Z,23.70
2018-09-05T05:52:31.965Z,23.70
2018-09-05T05:54:59.447Z,23.70
2018-09-05T05:57:28.783Z,23.70
2018-09-05T05:59:56.025Z,23.70
2018-09-05T06:02:23.150Z,23.70
2018-09-05T06:04:50.399Z,23.70
2018-09-05T06:07:17.671Z,23.70
2018-09-05T06:09:44.750Z,23.70
2018-09-05T06:12:11.945Z,23.70
2018-09-05T06:14:38.978Z,23.80
2018-09-05T06:17:06.064Z,23.70
2018-09-05T06:19:33.168Z,23.70
2018-09-05T06:22:00.322Z,23.70
2018-09-05T06:24:27.391Z,23.70
2018-09-05T06:26:54.478Z,23.70
2018-09-05T06:29:21.697Z,23.70
2018-09-05T06:31:48.917Z,23.70
2018-09-05T06:34:16.166Z,23.70
2018-09-05T06:36:43.220Z,23.70
2018-09-05T06:39:10.670Z,23.70
2018-09-05T06:41:37.945Z,23.70
2018-09-05T06:44:05.641Z,23.70
2018-09-05T06:46:32.921Z,23.70
2018-09-05T06:48:59.993Z,23.70
2018-09-05T06:51:27.175Z,23.70
2018-09-05T06:53:54.220Z,23.70
2018-09-05T06:56:21.309Z,23.70
2018-09-05T06:58:48.457Z,23.70
2018-09-05T07:01:15.940Z,23.70
2018-09-05T07:03:43.149Z,23.70
2018-09-05T07:06:10.142Z,23.70
2018-09-05T07:08:37.237Z,23.80
2018-09-05T07:11:04.313Z,23.80
2018-09-05T07:13:31.395Z,23.80
2018-09-05T07:15:58.518Z,23.80
2018-09-05T07:18:26.025Z,23.80
2018-09-05T07:21:05.679Z,23.80
2018-09-05T07:23:20.216Z,23.80
2018-09-05T07:25:47.477Z,23.80
2018-09-05T07:28:14.709Z,23.80
2018-09-05T07:30:41.829Z,23.80
2018-09-05T07:33:08.917Z,23.80
2018-09-05T07:35:36.111Z,23.80
2018-09-05T07:38:03.137Z,23.80
2018-09-05T07:40:30.244Z,23.80
2018-09-05T07:42:57.314Z,23.80
2018-09-05T07:45:24.470Z,23.80
2018-09-05T07:47:51.542Z,23.80
2018-09-05T07:50:18.630Z,23.80
2018-09-05T07:52:45.748Z,23.80
2018-09-05T07:55:12.922Z,23.80
2018-09-05T07:57:40.014Z,23.80
2018-09-05T08:00:07.105Z,23.80
2018-09-05T08:02:34.181Z,23.80
2018-09-05T08:05:01.273Z,23.80
2018-09-05T08:07:28.373Z,23.80
2018-09-05T08:09:55.486Z,23.80
2018-09-05T08:12:22.567Z,23.80
2018-09-05T08:14:49.660Z,23.80
2018-09-05T08:17:16.735Z,23.80
2018-09-05T08:19:43.881Z,23.80
2018-09-05T08:22:10.964Z,23.70
2018-09-05T08:24:44.143Z,23.70
2018-09-05T08:27:11.214Z,23.70
2018-09-05T08:29:38.281Z,23.70
2018-09-05T08:32:05.550Z,23.70
2018-09-05T08:34:32.625Z,23.60
2018-09-05T08:37:03.901Z,23.60
2018-09-05T08:39:30.928Z,23.60
2018-09-05T08:41:58.126Z,23.60
2018-09-05T08:44:25.274Z,23.60
2018-09-05T08:46:52.531Z,23.60
2018-09-05T08:49:19.525Z,23.60
2018-09-05T08:51:46.614Z,23.60
2018-09-05T08:54:13.700Z,23.60
2018-09-05T08:56:40.827Z,23.60
2018-09-05T08:59:08.006Z,23.60
2018-09-05T09:01:35.746Z,23.50
2018-09-05T09:04:02.825Z,23.50
2018-09-05T09:06:29.917Z,23.50
2018-09-05T09:08:57.017Z,23.40
2018-09-05T09:11:24.098Z,23.40
2018-09-05T09:13:51.173Z,23.50
2018-09-05T09:16:18.271Z,23.40
2018-09-05T09:18:45.391Z,23.50
2018-09-05T09:21:12.606Z,23.40
2018-09-05T09:23:39.687Z,23.40
2018-09-05T09:26:07.285Z,23.40
2018-09-05T09:28:34.398Z,23.40
2018-09-05T09:31:01.495Z,23.50
2018-09-05T09:33:28.576Z,23.50
2018-09-05T09:35:56.229Z,23.50
2018-09-05T09:38:23.318Z,23.40
2018-09-05T09:40:50.421Z,23.50
2018-09-05T09:43:17.490Z,23.40
2018-09-05T09:45:44.565Z,23.40
2018-09-05T09:48:11.657Z,23.40
2018-09-05T09:50:38.737Z,23.30
2018-09-05T09:53:05.834Z,23.30
2018-09-05T09:56:06.449Z,23.30
2018-09-05T09:58:33.549Z,23.30
2018-09-05T10:01:06.546Z,23.20
2018-09-05T10:03:39.402Z,23.20
2018-09-05T10:06:12.289Z,23.20
2018-09-05T10:08:45.217Z,23.20
2018-09-05T10:11:15.450Z,23.20
2018-09-05T10:13:48.156Z,23.20
2018-09-05T10:17:20.301Z,23.20
2018-09-05T10:19:53.206Z,23.20
2018-09-05T10:22:20.289Z,23.10
2018-09-05T10:24:47.390Z,23.10
2018-09-05T10:27:14.481Z,23.10
2018-09-05T10:29:41.558Z,23.10
2018-09-05T10:32:08.658Z,23.10
2018-09-05T10:34:36.427Z,23.00
2018-09-05T10:37:03.539Z,23.00
2018-09-05T10:39:30.615Z,23.10
2018-09-05T10:41:57.698Z,23.00
2018-09-05T10:44:24.918Z,23.00
2018-09-05T10:46:51.917Z,23.00
2018-09-05T10:49:18.997Z,23.00
2018-09-05T10:51:52.005Z,23.00
2018-09-05T10:54:19.045Z,23.00
2018-09-05T10:56:46.141Z,23.00
2018-09-05T10:59:13.285Z,23.00
2018-09-05T11:01:40.401Z,23.00
2018-09-05T11:04:07.541Z,23.00
2018-09-05T11:06:36.614Z,23.00
2018-09-05T11:09:06.833Z,23.00
2018-09-05T11:11:33.919Z,23.10
2018-09-05T11:14:01.749Z,23.10
2018-09-05T11:16:28.818Z,23.00
2018-09-05T11:18:55.903Z,23.10
2018-09-05T11:21:23.080Z,23.10
2018-09-05T11:23:50.190Z,23.10
2018-09-05T11:26:17.276Z,23.10
2018-09-05T11:28:44.437Z,23.10
2018-09-05T11:31:11.553Z,23.10
2018-09-05T11:33:38.649Z,23.20
2018-09-05T11:36:05.801Z,23.20
2018-09-05T11:38:32.954Z,23.30
2018-09-05T11:41:00.073Z,23.30
2018-09-05T11:43:27.197Z,23.40
2018-09-05T11:45:54.294Z,23.40
2018-09-05T11:48:21.462Z,23.40
2018-09-05T11:50:48.565Z,23.50
2018-09-05T11:53:15.670Z,23.50
2018-09-05T11:55:42.761Z,23.60
2018-09-05T11:58:09.874Z,23.60
2018-09-05T12:00:37.023Z,23.70
2018-09-05T12:03:04.087Z,23.70
2018-09-05T12:05:31.175Z,23.70
2018-09-05T12:07:58.269Z,23.80
2018-09-05T12:10:25.417Z,23.80
2018-09-05T12:12:52.493Z,23.80
2018-09-05T12:15:19.582Z,23.80
2018-09-05T12:17:46.698Z,23.90
2018-09-05T12:20:13.793Z,23.90
2018-09-05T12:22:40.886Z,23.90
2018-09-05T12:25:08.141Z,23.90
2018-09-05T12:27:35.224Z,24.00
2018-09-05T12:30:02.307Z,24.00
2018-09-05T12:32:29.395Z,24.00
2018-09-05T12:34:56.505Z,24.10
2018-09-05T12:37:23.583Z,24.10
2018-09-05T12:39:50.678Z,24.10
2018-09-05T12:42:17.769Z,24.20
2018-09-05T12:44:44.916Z,24.20
2018-09-05T12:47:11.979Z,24.20
2018-09-05T12:49:39.054Z,24.20
2018-09-05T12:52:06.153Z,24.30
2018-09-05T12:54:33.281Z,24.30
2018-09-05T12:57:00.422Z,24.30
2018-09-05T12:59:27.812Z,24.30
2018-09-05T13:01:54.885Z,24.30
2018-09-05T13:04:21.965Z,24.40
2018-09-05T13:06:49.088Z,24.40
2018-09-05T13:09:16.256Z,24.50
2018-09-05T13:11:43.550Z,24.50
2018-09-05T13:14:10.647Z,24.50
2018-09-05T13:16:37.962Z,24.50
2018-09-05T13:19:05.065Z,24.50
2018-09-05T13:21:36.203Z,24.60
2018-09-05T13:24:03.322Z,24.60
2018-09-05T13:26:30.446Z,24.60
2018-09-05T13:28:57.738Z,24.60
2018-09-05T13:31:24.821Z,24.70
2018-09-05T13:33:52.885Z,24.70
2018-09-05T13:36:20.163Z,24.70
2018-09-05T13:38:47.255Z,24.70
2018-09-05T13:41:14.340Z,24.70
2018-09-05T13:43:41.424Z,24.70
2018-09-05T13:46:08.834Z,24.80
2018-09-05T13:48:35.933Z,24.80
2018-09-05T13:51:03.187Z,24.80
2018-09-05T13:53:30.449Z,24.90
2018-09-05T13:55:57.913Z,24.90
2018-09-05T13:58:25.022Z,24.90
2018-09-05T14:00:52.134Z,24.90
2018-09-05T14:03:19.225Z,24.90
2018-09-05T14:05:46.305Z,24.90
2018-09-05T14:08:13.372Z,24.90
2018-09-05T14:10:40.483Z,24.90
2018-09-05T14:13:07.565Z,25.00
2018-09-05T14:15:34.657Z,25.00
2018-09-05T14:18:01.746Z,25.00
2018-09-05T14:20:28.900Z,25.00
2018-09-05T14:22:55.986Z,25.10
2018-09-05T14:25:23.065Z,25.10
2018-09-05T14:27:50.168Z,25.10
2018-09-05T14:30:17.274Z,25.10
2018-09-05T14:32:44.390Z,25.20
2018-09-05T14:35:11.473Z,25.20
2018-09-05T14:37:38.559Z,25.30
2018-09-05T14:40:05.667Z,25.30
2018-09-05T14:42:32.733Z,25.30
2018-09-05T14:44:59.811Z,25.40
2018-09-05T14:47:27.286Z,25.40
2018-09-05T14:49:54.361Z,25.40
2018-09-05T14:52:21.442Z,25.40
2018-09-05T14:54:48.807Z,25.40
2018-09-05T14:57:15.917Z,25.40
2018-09-05T14:59:43.031Z,25.50
2018-09-05T15:02:14.187Z,25.50
2018-09-05T15:04:41.280Z,25.50
2018-09-05T15:07:08.389Z,25.60
2018-09-05T15:09:35.486Z,25.60
2018-09-05T15:12:02.564Z,25.60
2018-09-05T15:14:29.669Z,25.70
2018-09-05T15:16:56.765Z,25.60
2018-09-05T15:19:23.837Z,25.60
2018-09-05T15:21:50.913Z,25.70
2018-09-05T15:24:18.006Z,25.70
2018-09-05T15:26:45.093Z,25.70
2018-09-05T15:29:12.201Z,25.70
2018-09-05T15:31:39.285Z,25.70
2018-09-05T15:34:06.373Z,25.70
2018-09-05T15:36:33.465Z,25.70
2018-09-05T15:39:00.550Z,25.70
2018-09-05T15:41:27.634Z,25.70
2018-09-05T15:43:55.482Z,25.70
2018-09-05T15:46:22.553Z,25.70
2018-09-05T15:48:49.677Z,25.70
2018-09-05T15:51:16.758Z,25.70
2018-09-05T15:53:44.007Z,25.70
2018-09-05T15:56:11.095Z,25.70
2018-09-05T15:58:38.193Z,25.70
2018-09-05T16:01:05.342Z,25.70
2018-09-05T16:03:32.463Z,25.70
2018-09-05T16:05:59.782Z,25.60
2018-09-05T16:08:26.865Z,25.70
2018-09-05T16:10:53.953Z,25.70
2018-09-05T16:13:21.020Z,25.60
2018-09-05T16:15:48.121Z,25.60
2018-09-05T16:18:15.209Z,25.60
2018-09-05T16:20:42.286Z,25.60
2018-09-05T16:23:09.371Z,25.60
2018-09-05T16:25:36.449Z,25.60
2018-09-05T16:28:03.522Z,25.60
2018-09-05T16:30:30.606Z,25.60
2018-09-05T16:32:57.733Z,25.50
2018-09-05T16:35:24.831Z,25.50
2018-09-05T16:37:51.905Z,25.40
2018-09-05T16:40:18.986Z,25.40
2018-09-05T16:42:46.083Z,25.40
2018-09-05T16:45:13.209Z,25.30
2018-09-05T16:47:40.281Z,25.30
2018-09-05T16:50:07.364Z,25.30
2018-09-05T16:52:34.444Z,25.30
2018-09-05T16:55:01.535Z,25.30
2018-09-05T16:57:28.625Z,25.20
2018-09-05T16:59:55.716Z,25.20
2018-09-05T17:02:23.341Z,25.20
2018-09-05T17:04:50.453Z,25.10
2018-09-05T17:07:17.533Z,25.10
2018-09-05T17:09:44.618Z,25.10
2018-09-05T17:12:11.685Z,25.10
2018-09-05T17:14:38.777Z,25.00
2018-09-05T17:17:05.973Z,25.00
2018-09-05T17:19:33.073Z,25.00
2018-09-05T17:22:00.181Z,25.00
2018-09-05T17:24:27.285Z,25.00
2018-09-05T17:26:54.366Z,24.90
2018-09-05T17:29:21.518Z,24.90
2018-09-05T17:31:48.621Z,24.90
2018-09-05T17:34:15.733Z,24.90
2018-09-05T17:36:42.812Z,24.90
2018-09-05T17:39:11.069Z,24.90
2018-09-05T17:41:38.438Z,24.90
2018-09-05T17:44:06.246Z,24.90
2018-09-05T17:46:33.465Z,24.90
2018-09-05T17:49:00.565Z,24.80
2018-09-05T17:51:27.633Z,24.80
2018-09-05T17:53:54.745Z,24.70
2018-09-05T17:56:26.024Z,24.70
2018-09-05T17:58:53.125Z,24.70
2018-09-05T18:01:22.200Z,24.70
2018-09-05T18:03:52.086Z,24.60
2018-09-05T18:06:19.825Z,24.60
2018-09-05T18:08:47.097Z,24.60
2018-09-05T18:11:14.607Z,24.60
2018-09-05T18:13:43.293Z,24.60
2018-09-05T18:16:10.449Z,24.60
2018-09-05T18:18:37.577Z,24.60
2018-09-05T18:21:05.754Z,24.60
2018-09-05T18:23:32.834Z,24.50
2018-09-05T18:25:59.957Z,24.50
2018-09-05T18:28:29.184Z,24.50
2018-09-05T18:30:56.265Z,24.50
2018-09-05T18:33:23.490Z,24.50
2018-09-05T18:35:50.575Z,24.50
2018-09-05T18:38:18.026Z,24.50
2018-09-05T18:40:45.094Z,24.50
2018-09-05T18:43:12.370Z,24.50
2018-09-05T18:45:39.457Z,24.50
2018-09-05T18:48:10.634Z,24.40
2018-09-05T18:50:37.760Z,24.40
2018-09-05T18:53:11.210Z,24.40
2018-09-05T18:55:39.321Z,24.40
2018-09-05T18:58:06.412Z,24.30
2018-09-05T19:00:33.871Z,24.30
2018-09-05T19:03:00.906Z,24.30
2018-09-05T19:05:28.132Z,24.30
2018-09-05T19:07:55.235Z,24.20
2018-09-05T19:10:22.321Z,24.20
2018-09-05T19:12:49.413Z,24.20
2018-09-05T19:15:16.505Z,24.20
2018-09-05T19:17:43.581Z,24.20
2018-09-05T19:20:10.671Z,24.20
2018-09-05T19:22:38.426Z,24.10
2018-09-05T19:25:05.786Z,24.10
2018-09-05T19:27:32.891Z,24.10
2018-09-05T19:30:01.967Z,24.00
2018-09-05T19:32:29.053Z,24.00
2018-09-05T19:34:58.225Z,24.00
2018-09-05T19:37:25.323Z,24.00
2018-09-05T19:39:52.607Z,24.00
2018-09-05T19:42:19.734Z,24.00
2018-09-05T19:44:46.860Z,24.00
2018-09-05T19:47:14.103Z,24.00
2018-09-05T19:49:41.567Z,24.00
2018-09-05T19:52:08.687Z,24.00
2018-09-05T19:54:35.797Z,24.00
2018-09-05T19:57:02.865Z,24.00
2018-09-05T19:59:29.945Z,24.00
2018-09-05T20:01:57.055Z,24.00
2018-09-05T20:04:24.470Z,24.00
2018-09-05T20:06:51.574Z,24.00
2018-09-05T20:09:18.676Z,24.00
2018-09-05T20:11:45.804Z,24.00
2018-09-05T20:14:13.124Z,24.00
2018-09-05T20:16:40.205Z,24.00
2018-09-05T20:19:07.286Z,23.90
2018-09-05T20:21:34.408Z,23.90
2018-09-05T20:24:01.697Z,23.90
2018-09-05T20:26:29.067Z,23.90
2018-09-05T20:29:00.272Z,23.90
2018-09-05T20:31:27.351Z,23.90
2018-09-05T20:33:55.110Z,23.90
2018-09-05T20:36:22.209Z,23.90
2018-09-05T20:38:49.555Z,23.90
2018-09-05T20:41:16.649Z,23.80
2018-09-05T20:43:43.792Z,23.80
2018-09-05T20:46:10.822Z,23.80
2018-09-05T20:48:38.049Z,23.80
2018-09-05T20:51:05.154Z,23.80
2018-09-05T20:53:32.297Z,23.70
2018-09-05T20:55:59.373Z,23.70
2018-09-05T20:58:26.509Z,23.70
2018-09-05T21:00:53.605Z,23.70
2018-09-05T21:03:20.731Z,23.80
2018-09-05T21:05:47.841Z,23.80
2018-09-05T21:08:14.921Z,23.80
2018-09-05T21:10:42.432Z,23.80
2018-09-05T21:13:09.518Z,23.80
2018-09-05T21:15:36.609Z,23.80
2018-09-05T21:18:03.766Z,23.80
2018-09-05T21:20:30.790Z,23.80
2018-09-05T21:22:57.885Z,23.90
2018-09-05T21:25:24.961Z,23.80
2018-09-05T21:27:52.034Z,23.80
2018-09-05T21:30:19.201Z,23.90
2018-09-05T21:32:46.277Z,23.80
2018-09-05T21:35:13.380Z,23.80
2018-09-05T21:37:40.449Z,23.80
2018-09-05T21:40:07.569Z,23.80
2018-09-05T21:42:34.631Z,23.80
2018-09-05T21:45:01.731Z,23.80
2018-09-05T21:47:28.819Z,23.70
2018-09-05T21:49:55.930Z,23.70
2018-09-05T21:52:23.005Z,23.60
2018-09-05T21:54:50.102Z,23.60
2018-09-05T21:57:17.191Z,23.50
2018-09-05T21:59:44.265Z,23.50
2018-09-05T22:02:12.963Z,23.40
2018-09-05T22:04:40.081Z,23.40
2018-09-05T22:07:07.159Z,23.40
2018-09-05T22:09:34.549Z,23.30
2018-09-05T22:12:01.631Z,23.30
2018-09-05T22:14:28.711Z,23.30
2018-09-05T22:16:55.811Z,23.30
2018-09-05T22:19:22.889Z,23.30
2018-09-05T22:21:49.965Z,23.30
2018-09-05T22:24:17.047Z,23.30
2018-09-05T22:26:44.125Z,23.40
2018-09-05T22:29:11.229Z,23.40
2018-09-05T22:31:38.321Z,23.40
2018-09-05T22:34:05.426Z,23.40
2018-09-05T22:36:32.501Z,23.50
2018-09-05T22:38:59.647Z,23.50
2018-09-05T22:41:26.722Z,23.50
2018-09-05T22:44:05.394Z,23.50
2018-09-05T22:46:44.121Z,23.50
2018-09-05T22:51:36.647Z,23.50
2018-09-05T22:54:25.176Z,23.50
2018-09-05T22:57:12.085Z,23.60
2018-09-05T22:59:52.737Z,23.60
2018-09-05T23:04:34.313Z,23.60
2018-09-05T23:07:14.490Z,23.60
2018-09-05T23:09:53.358Z,23.60
2018-09-05T23:12:32.293Z,23.70
2018-09-05T23:15:11.169Z,23.70
2018-09-05T23:19:53.799Z,23.70
2018-09-05T23:22:21.080Z,23.70
2018-09-05T23:24:48.149Z,23.70
2018-09-05T23:27:15.225Z,23.70
2018-09-05T23:29:42.323Z,23.70
2018-09-05T23:32:09.561Z,23.70
2018-09-05T23:34:36.636Z,23.70
2018-09-05T23:37:03.717Z,23.70
2018-09-05T23:39:30.822Z,23.70
2018-09-05T23:41:57.888Z,23.60
2018-09-05T23:44:24.965Z,23.60
2018-09-05T23:46:52.029Z,23.60
2018-09-05T23:49:19.125Z,23.60
2018-09-05T23:51:46.205Z,23.60
2018-09-05T23:54:13.286Z,23.60
2018-09-05T23:56:40.417Z,23.60
2018-09-05T23:59:07.541Z,23.50
